createdAt,value
2023-01-13T00:01:11.745Z,98.20
2023-01-13T00:03:38.863Z,98.43
2023-01-13T00:06:06.895Z,98.29
2023-01-13T00:08:33.898Z,97.96
2023-01-13T00:11:00.335Z,96.56
2023-01-13T00:13:26.816Z,97.29
2023-01-13T00:16:01.821Z,97.00
2023-01-13T00:18:28.625Z,96.82
2023-01-13T00:21:16.001Z,97.48
2023-01-13T00:23:43.680Z,96.86
2023-01-13T00:26:22.503Z,96.83
2023-01-13T00:28:49.723Z,97.12
2023-01-13T00:31:19.502Z,97.37
2023-01-13T00:33:48.936Z,97.02
2023-01-13T00:36:16.738Z,97.29
2023-01-13T00:38:43.963Z,97.51
2023-01-13T00:41:12.937Z,97.64
2023-01-13T00:43:40.407Z,97.04
2023-01-13T00:46:09.264Z,97.09
2023-01-13T00:48:36.457Z,96.90
2023-01-13T00:51:04.710Z,97.18
2023-01-13T00:53:35.780Z,97.35
2023-01-13T00:56:07.630Z,97.68
2023-01-13T00:58:35.207Z,97.31
2023-01-13T01:01:03.970Z,97.48
2023-01-13T01:03:30.934Z,97.43
2023-01-13T01:06:03.178Z,97.94
2023-01-13T01:08:29.642Z,98.08
2023-01-13T01:11:02.838Z,98.65
2023-01-13T01:13:29.273Z,98.18
2023-01-13T01:15:55.847Z,98.11
2023-01-13T01:18:22.319Z,98.72
2023-01-13T01:20:48.731Z,98.30
2023-01-13T01:23:15.352Z,98.93
2023-01-13T01:25:41.803Z,98.90
2023-01-13T01:28:08.197Z,98.44
2023-01-13T01:30:34.654Z,97.53
2023-01-13T01:33:03.088Z,97.62
2023-01-13T01:35:29.504Z,97.47
2023-01-13T01:37:55.896Z,97.48
2023-01-13T01:40:22.303Z,97.62
2023-01-13T01:43:07.077Z,97.56
2023-01-13T01:45:33.634Z,97.67
2023-01-13T01:48:04.469Z,97.86
2023-01-13T01:50:31.544Z,97.61
2023-01-13T01:53:07.208Z,97.69
2023-01-13T01:55:36.810Z,97.27
2023-01-13T01:58:35.502Z,96.83
2023-01-13T02:01:02.201Z,97.50
2023-01-13T02:03:29.935Z,97.38
2023-01-13T02:05:56.448Z,96.87
2023-01-13T02:08:22.966Z,97.03
2023-01-13T02:10:53.721Z,97.58
2023-01-13T02:13:22.526Z,96.69
2023-01-13T02:16:15.237Z,96.35
2023-01-13T02:19:08.543Z,96.93
2023-01-13T02:22:03.795Z,96.07
2023-01-13T02:25:10.534Z,95.70
2023-01-13T02:28:14.752Z,95.69
2023-01-13T02:31:06.352Z,96.34
2023-01-13T02:33:55.868Z,95.57
2023-01-13T02:36:34.095Z,95.68
2023-01-13T02:39:17.823Z,95.64
2023-01-13T02:42:30.953Z,95.38
2023-01-13T02:45:04.628Z,95.22
2023-01-13T02:47:35.853Z,94.92
2023-01-13T02:50:06.503Z,93.83
2023-01-13T02:52:47.494Z,93.73
2023-01-13T02:55:18.169Z,94.03
2023-01-13T02:57:46.364Z,94.07
2023-01-13T03:00:14.926Z,93.99
2023-01-13T03:02:41.392Z,92.94
2023-01-13T03:05:08.118Z,93.48
2023-01-13T03:08:10.819Z,93.57
2023-01-13T03:10:49.923Z,93.49
2023-01-13T03:13:42.495Z,92.25
2023-01-13T03:16:23.374Z,93.20
2023-01-13T03:19:01.212Z,93.41
2023-01-13T03:21:35.656Z,92.80
2023-01-13T03:24:22.561Z,93.03
2023-01-13T03:26:51.700Z,93.39
2023-01-13T03:29:35.066Z,93.49
2023-01-13T03:32:18.436Z,93.24
2023-01-13T03:34:50.238Z,93.09
2023-01-13T03:37:21.147Z,93.33
2023-01-13T03:39:52.882Z,92.88
2023-01-13T03:42:25.964Z,93.24
2023-01-13T03:45:03.015Z,93.08
2023-01-13T03:47:37.137Z,92.80
2023-01-13T03:50:09.576Z,92.33
2023-01-13T03:52:45.326Z,91.96
2023-01-13T03:55:15.530Z,93.24
2023-01-13T03:57:52.124Z,93.50
2023-01-13T04:00:22.240Z,93.26
2023-01-13T04:02:57.201Z,92.58
2023-01-13T04:05:23.623Z,92.18
2023-01-13T04:07:56.308Z,93.32
2023-01-13T04:10:31.560Z,93.42
2023-01-13T04:13:10.584Z,93.47
2023-01-13T04:15:40.139Z,92.99
2023-01-13T04:18:11.641Z,93.03
2023-01-13T04:20:39.747Z,92.89
2023-01-13T04:23:06.825Z,92.68
2023-01-13T04:25:34.400Z,92.89
2023-01-13T04:28:01.480Z,92.54
2023-01-13T04:30:28.085Z,93.05
2023-01-13T04:32:54.938Z,92.57
2023-01-13T04:35:21.360Z,92.69
2023-01-13T04:37:48.421Z,92.02
2023-01-13T04:40:14.950Z,92.39
2023-01-13T04:42:44.185Z,92.18
2023-01-13T04:45:11.328Z,92.48
2023-01-13T04:47:38.143Z,91.09
2023-01-13T04:50:05.229Z,90.90
2023-01-13T04:52:31.723Z,89.67
2023-01-13T04:54:58.147Z,90.69
2023-01-13T04:57:24.613Z,89.80
2023-01-13T04:59:51.053Z,88.67
2023-01-13T05:02:20.002Z,90.68
2023-01-13T05:04:47.713Z,90.17
2023-01-13T05:07:16.144Z,89.52
2023-01-13T05:09:42.727Z,89.91
2023-01-13T05:12:29.071Z,89.33
2023-01-13T05:15:14.009Z,90.23
2023-01-13T05:17:40.865Z,90.33
2023-01-13T05:20:08.298Z,90.13
2023-01-13T05:22:53.101Z,90.47
2023-01-13T05:25:22.210Z,90.65
2023-01-13T05:27:48.867Z,91.23
2023-01-13T05:30:16.274Z,90.73
2023-01-13T05:32:42.806Z,90.27
2023-01-13T05:35:09.605Z,90.78
2023-01-13T05:37:36.209Z,90.32
2023-01-13T05:40:22.429Z,90.91
2023-01-13T05:43:18.380Z,91.38
2023-01-13T05:45:45.267Z,91.98
2023-01-13T05:48:11.812Z,91.40
2023-01-13T05:50:38.299Z,92.35
2023-01-13T05:53:05.017Z,92.05
2023-01-13T05:55:31.865Z,91.74
2023-01-13T05:57:58.424Z,91.82
2023-01-13T06:00:25.016Z,90.88
2023-01-13T06:02:51.950Z,91.00
2023-01-13T06:05:18.369Z,91.21
2023-01-13T06:07:44.802Z,91.05
2023-01-13T06:10:11.545Z,90.88
2023-01-13T06:12:38.102Z,90.66
2023-01-13T06:15:04.950Z,90.69
2023-01-13T06:17:31.374Z,90.87
2023-01-13T06:19:57.772Z,90.23
2023-01-13T06:22:28.374Z,91.07
2023-01-13T06:24:54.892Z,91.17
2023-01-13T06:27:22.947Z,91.98
2023-01-13T06:29:49.692Z,91.07
2023-01-13T06:32:28.192Z,90.97
2023-01-13T06:35:00.246Z,90.61
2023-01-13T06:37:28.542Z,90.41
2023-01-13T06:39:58.526Z,88.99
2023-01-13T06:42:47.040Z,90.26
2023-01-13T06:45:14.255Z,89.45
2023-01-13T06:47:41.252Z,89.41
2023-01-13T06:50:08.328Z,88.79
2023-01-13T06:52:34.745Z,88.99
2023-01-13T06:55:01.262Z,88.51
2023-01-13T06:57:27.722Z,88.76
2023-01-13T06:59:54.274Z,88.92
2023-01-13T07:02:20.851Z,88.74
2023-01-13T07:04:47.430Z,89.04
2023-01-13T07:07:13.852Z,88.88
2023-01-13T07:09:40.372Z,89.09
2023-01-13T07:12:07.250Z,89.36
2023-01-13T07:14:52.059Z,89.61
2023-01-13T07:17:25.458Z,89.53
2023-01-13T07:19:53.027Z,89.60
2023-01-13T07:22:19.610Z,89.35
2023-01-13T07:24:46.092Z,89.29
2023-01-13T07:27:12.611Z,89.76
2023-01-13T07:29:39.708Z,88.57
2023-01-13T07:32:07.769Z,89.40
2023-01-13T07:34:34.262Z,88.79
2023-01-13T07:37:01.355Z,87.47
2023-01-13T07:39:27.880Z,88.01
2023-01-13T07:42:12.996Z,87.98
2023-01-13T07:44:39.563Z,88.27
2023-01-13T07:47:08.484Z,88.31
2023-01-13T07:49:35.007Z,87.07
2023-01-13T07:52:01.748Z,86.62
2023-01-13T07:54:40.062Z,87.31
2023-01-13T07:57:08.928Z,87.27
2023-01-13T07:59:35.460Z,86.53
2023-01-13T08:02:02.091Z,87.18
2023-01-13T08:04:28.718Z,86.97
2023-01-13T08:06:55.198Z,86.86
2023-01-13T08:09:21.944Z,85.32
2023-01-13T08:12:08.436Z,85.77
2023-01-13T08:14:35.046Z,85.61
2023-01-13T08:17:01.548Z,85.40
2023-01-13T08:19:28.055Z,84.61
2023-01-13T08:21:54.472Z,84.88
2023-01-13T08:24:20.910Z,84.96
2023-01-13T08:26:47.379Z,85.82
2023-01-13T08:29:15.181Z,85.05
2023-01-13T08:31:41.748Z,85.22
2023-01-13T08:34:08.175Z,84.75
2023-01-13T08:36:34.729Z,85.28
2023-01-13T08:39:01.723Z,84.83
2023-01-13T08:41:46.518Z,86.04
2023-01-13T08:44:12.976Z,88.13
2023-01-13T08:46:40.006Z,88.31
2023-01-13T08:49:06.477Z,88.67
2023-01-13T08:51:33.060Z,89.21
2023-01-13T08:53:59.512Z,89.43
2023-01-13T08:56:26.037Z,89.25
2023-01-13T08:58:52.464Z,90.10
2023-01-13T09:01:22.818Z,90.25
2023-01-13T09:03:49.623Z,90.75
2023-01-13T09:06:16.039Z,91.20
2023-01-13T09:08:42.984Z,91.33
2023-01-13T09:11:38.771Z,91.18
2023-01-13T09:14:05.525Z,91.12
2023-01-13T09:16:31.933Z,91.33
2023-01-13T09:18:58.371Z,90.18
2023-01-13T09:21:24.794Z,89.82
2023-01-13T09:23:51.922Z,91.64
2023-01-13T09:26:21.298Z,91.71
2023-01-13T09:28:48.065Z,91.77
2023-01-13T09:31:14.716Z,92.11
2023-01-13T09:33:59.780Z,92.70
2023-01-13T09:36:26.211Z,91.45
2023-01-13T09:38:52.672Z,92.21
2023-01-13T09:41:40.563Z,92.12
2023-01-13T09:44:16.281Z,91.89
2023-01-13T09:46:49.403Z,91.88
2023-01-13T09:49:29.045Z,91.92
2023-01-13T09:51:58.943Z,91.51
2023-01-13T09:54:41.070Z,89.75
2023-01-13T09:57:12.974Z,89.98
2023-01-13T09:59:40.356Z,90.08
2023-01-13T10:02:27.886Z,89.50
2023-01-13T10:05:05.051Z,89.14
2023-01-13T10:07:36.778Z,89.48
2023-01-13T10:10:10.992Z,89.44
2023-01-13T10:12:55.807Z,88.94
2023-01-13T10:15:26.131Z,90.12
2023-01-13T10:17:55.306Z,90.62
2023-01-13T10:20:32.046Z,90.72
2023-01-13T10:23:26.574Z,90.93
2023-01-13T10:25:58.088Z,91.52
2023-01-13T10:28:25.362Z,91.25
2023-01-13T10:30:51.977Z,90.64
2023-01-13T10:33:21.205Z,90.64
2023-01-13T10:36:12.728Z,90.54
2023-01-13T10:38:47.198Z,89.81
2023-01-13T10:41:13.535Z,89.88
2023-01-13T10:43:42.729Z,90.09
2023-01-13T10:46:16.321Z,89.34
2023-01-13T10:49:04.447Z,88.66
2023-01-13T10:51:51.170Z,89.08
2023-01-13T10:54:22.511Z,89.55
2023-01-13T10:57:09.948Z,89.96
2023-01-13T10:59:36.513Z,90.64
2023-01-13T11:02:25.270Z,89.71
2023-01-13T11:04:55.271Z,89.70
2023-01-13T11:07:31.770Z,88.80
2023-01-13T11:10:17.138Z,88.46
2023-01-13T11:13:03.830Z,89.24
2023-01-13T11:15:56.793Z,88.97
2023-01-13T11:19:02.254Z,88.76
2023-01-13T11:21:50.638Z,88.21
2023-01-13T11:24:42.448Z,87.97
2023-01-13T11:27:25.977Z,88.24
2023-01-13T11:30:10.773Z,87.27
2023-01-13T11:32:47.784Z,87.37
2023-01-13T11:35:19.764Z,86.26
2023-01-13T11:37:53.716Z,85.14
2023-01-13T11:40:46.143Z,84.88
2023-01-13T11:43:39.696Z,85.43
2023-01-13T11:46:07.280Z,84.96
2023-01-13T11:48:39.382Z,83.12
2023-01-13T11:51:21.397Z,83.34
2023-01-13T11:54:02.651Z,83.83
2023-01-13T11:56:43.514Z,81.94
2023-01-13T11:59:45.286Z,83.59
2023-01-13T12:02:19.230Z,82.08
2023-01-13T12:04:57.516Z,82.76
2023-01-13T12:07:42.354Z,82.28
2023-01-13T12:10:29.986Z,82.06
2023-01-13T12:13:31.972Z,82.07
2023-01-13T12:16:10.601Z,81.52
2023-01-13T12:18:51.313Z,82.07
2023-01-13T12:21:19.600Z,80.81
2023-01-13T12:24:06.249Z,81.35
2023-01-13T12:26:38.835Z,80.33
2023-01-13T12:29:12.586Z,81.84
2023-01-13T12:31:41.352Z,81.43
2023-01-13T12:34:26.856Z,81.10
2023-01-13T12:37:05.452Z,81.37
2023-01-13T12:40:01.687Z,79.83
2023-01-13T12:42:58.896Z,80.44
2023-01-13T12:45:33.072Z,79.47
2023-01-13T12:48:00.445Z,79.72
2023-01-13T12:50:27.028Z,78.92
2023-01-13T12:52:55.680Z,79.21
2023-01-13T12:55:27.183Z,79.87
2023-01-13T12:58:15.579Z,78.56
2023-01-13T13:00:41.978Z,78.74
2023-01-13T13:03:11.332Z,78.39
2023-01-13T13:05:56.585Z,78.52
2023-01-13T13:08:50.311Z,78.28
2023-01-13T13:11:39.560Z,77.92
2023-01-13T13:14:11.844Z,78.12
2023-01-13T13:16:52.062Z,78.62
2023-01-13T13:19:18.641Z,78.21
2023-01-13T13:22:13.412Z,77.57
2023-01-13T13:24:48.833Z,77.15
2023-01-13T13:27:38.261Z,76.96
2023-01-13T13:30:34.600Z,76.81
2023-01-13T13:33:31.911Z,77.46
2023-01-13T13:36:13.547Z,76.91
2023-01-13T13:39:29.999Z,76.83
2023-01-13T13:42:32.973Z,75.91
2023-01-13T13:45:40.083Z,76.25
2023-01-13T13:48:33.764Z,76.87
2023-01-13T13:51:03.756Z,76.53
2023-01-13T13:53:34.685Z,75.76
2023-01-13T13:56:04.063Z,76.31
2023-01-13T13:58:35.413Z,76.10
2023-01-13T14:01:03.709Z,76.52
2023-01-13T14:03:37.843Z,77.55
2023-01-13T14:06:07.526Z,76.28
2023-01-13T14:08:39.058Z,77.51
2023-01-13T14:11:29.128Z,77.82
2023-01-13T14:14:04.365Z,77.14
2023-01-13T14:16:32.140Z,76.92
2023-01-13T14:18:59.008Z,76.71
2023-01-13T14:21:28.494Z,76.70
2023-01-13T14:24:01.034Z,77.24
2023-01-13T14:26:30.815Z,77.98
2023-01-13T14:28:59.781Z,76.84
2023-01-13T14:31:26.517Z,78.13
2023-01-13T14:33:57.441Z,78.46
2023-01-13T14:36:32.964Z,78.86
2023-01-13T14:39:05.694Z,78.65
2023-01-13T14:41:34.187Z,77.80
2023-01-13T14:44:04.118Z,78.68
2023-01-13T14:46:37.655Z,78.85
2023-01-13T14:49:04.476Z,79.25
2023-01-13T14:51:31.740Z,79.87
2023-01-13T14:53:59.588Z,80.67
2023-01-13T14:56:44.116Z,80.11
2023-01-13T14:59:32.586Z,78.49
2023-01-13T15:01:59.861Z,78.93
2023-01-13T15:04:31.826Z,78.82
2023-01-13T15:07:00.051Z,78.50
2023-01-13T15:09:33.222Z,79.07
2023-01-13T15:12:12.297Z,79.15
2023-01-13T15:14:38.759Z,78.98
2023-01-13T15:17:15.990Z,79.19
2023-01-13T15:19:42.454Z,78.62
2023-01-13T15:22:08.914Z,77.99
2023-01-13T15:24:35.348Z,78.15
2023-01-13T15:27:13.176Z,79.05
2023-01-13T15:29:39.624Z,78.78
2023-01-13T15:32:09.180Z,79.02
2023-01-13T15:34:36.223Z,78.39
2023-01-13T15:37:02.646Z,78.92
2023-01-13T15:39:29.085Z,79.59
2023-01-13T15:42:15.533Z,79.85
2023-01-13T15:45:00.376Z,80.53
2023-01-13T15:47:27.079Z,80.54
2023-01-13T15:49:54.428Z,80.29
2023-01-13T15:52:23.376Z,80.18
2023-01-13T15:54:50.640Z,80.43
2023-01-13T15:57:29.083Z,80.82
2023-01-13T15:59:58.455Z,80.94
2023-01-13T16:02:25.334Z,81.60
2023-01-13T16:04:53.804Z,81.31
2023-01-13T16:07:22.638Z,80.45
2023-01-13T16:09:49.426Z,80.22
2023-01-13T16:12:16.018Z,80.50
2023-01-13T16:14:42.801Z,81.22
2023-01-13T16:17:14.429Z,81.36
2023-01-13T16:19:41.012Z,81.63
2023-01-13T16:22:09.341Z,81.10
2023-01-13T16:24:35.761Z,81.56
2023-01-13T16:27:02.140Z,80.71
2023-01-13T16:29:29.405Z,81.54
2023-01-13T16:31:55.913Z,81.61
2023-01-13T16:34:23.117Z,81.89
2023-01-13T16:36:50.214Z,82.11
2023-01-13T16:39:21.660Z,81.85
2023-01-13T16:41:48.618Z,81.67
2023-01-13T16:44:15.114Z,81.87
2023-01-13T16:46:44.436Z,82.03
2023-01-13T16:49:13.579Z,82.83
2023-01-13T16:51:40.406Z,84.32
2023-01-13T16:54:07.516Z,86.53
2023-01-13T16:56:36.079Z,88.65
2023-01-13T16:59:08.408Z,89.48
2023-01-13T17:01:38.166Z,90.25
2023-01-13T17:04:05.602Z,90.94
2023-01-13T17:06:34.576Z,91.27
2023-01-13T17:09:06.063Z,90.88
2023-01-13T17:11:32.558Z,91.71
2023-01-13T17:13:59.226Z,92.27
2023-01-13T17:16:26.261Z,93.11
2023-01-13T17:18:53.621Z,93.29
2023-01-13T17:21:20.185Z,93.29
2023-01-13T17:23:46.728Z,93.91
2023-01-13T17:26:32.341Z,93.63
2023-01-13T17:29:00.296Z,93.65
2023-01-13T17:31:28.234Z,93.67
2023-01-13T17:33:55.285Z,93.22
2023-01-13T17:36:22.908Z,92.53
2023-01-13T17:38:50.596Z,92.49
2023-01-13T17:41:17.069Z,92.54
2023-01-13T17:43:43.595Z,93.01
2023-01-13T17:46:11.547Z,93.44
2023-01-13T17:48:38.268Z,93.19
2023-01-13T17:51:08.603Z,92.79
2023-01-13T17:53:35.176Z,93.29
2023-01-13T17:56:01.655Z,92.56
2023-01-13T17:58:28.136Z,92.28
2023-01-13T18:00:54.765Z,93.26
2023-01-13T18:03:21.333Z,93.05
2023-01-13T18:05:47.816Z,93.16
2023-01-13T18:08:14.244Z,93.73
2023-01-13T18:10:40.801Z,93.26
2023-01-13T18:13:07.824Z,93.62
2023-01-13T18:15:34.258Z,94.20
2023-01-13T18:18:00.794Z,94.19
2023-01-13T18:20:46.318Z,93.91
2023-01-13T18:23:36.447Z,94.19
2023-01-13T18:26:38.700Z,94.08
2023-01-13T18:29:05.424Z,94.74
2023-01-13T18:31:31.895Z,94.73
2023-01-13T18:33:58.346Z,94.71
2023-01-13T18:36:24.789Z,95.33
2023-01-13T18:38:51.459Z,94.90
2023-01-13T18:41:37.019Z,95.04
2023-01-13T18:44:03.610Z,95.01
2023-01-13T18:46:30.188Z,95.17
2023-01-13T18:48:56.830Z,95.73
2023-01-13T18:51:23.375Z,94.92
2023-01-13T18:53:49.880Z,94.88
2023-01-13T18:56:16.874Z,94.37
2023-01-13T18:58:51.332Z,93.84
2023-01-13T19:01:26.270Z,93.77
2023-01-13T19:03:56.820Z,93.39
2023-01-13T19:06:27.777Z,93.79
2023-01-13T19:08:55.936Z,93.17
2023-01-13T19:11:23.624Z,92.88
2023-01-13T19:13:51.380Z,92.74
2023-01-13T19:16:19.616Z,93.71
2023-01-13T19:18:46.072Z,92.90
2023-01-13T19:21:12.923Z,92.85
2023-01-13T19:23:39.680Z,92.47
2023-01-13T19:26:09.119Z,93.12
2023-01-13T19:28:37.077Z,93.49
2023-01-13T19:31:06.779Z,92.92
2023-01-13T19:33:35.645Z,93.29
2023-01-13T19:36:03.395Z,92.31
2023-01-13T19:38:30.147Z,92.84
2023-01-13T19:41:02.415Z,92.59
2023-01-13T19:43:47.475Z,92.02
2023-01-13T19:46:14.459Z,92.47
2023-01-13T19:48:42.816Z,92.58
2023-01-13T19:51:10.296Z,92.71
2023-01-13T19:53:36.748Z,92.19
2023-01-13T19:56:04.010Z,91.69
2023-01-13T19:58:30.504Z,91.84
2023-01-13T20:00:57.064Z,91.87
2023-01-13T20:03:25.998Z,91.56
2023-01-13T20:05:53.387Z,91.43
2023-01-13T20:08:21.837Z,92.04
2023-01-13T20:10:49.463Z,91.30
2023-01-13T20:13:16.456Z,91.93
2023-01-13T20:15:43.834Z,91.86
2023-01-13T20:18:10.467Z,91.27
2023-01-13T20:20:37.527Z,91.75
2023-01-13T20:23:04.320Z,91.96
2023-01-13T20:25:31.019Z,92.30
2023-01-13T20:27:58.424Z,92.53
2023-01-13T20:30:25.715Z,91.97
2023-01-13T20:32:52.616Z,92.17
2023-01-13T20:35:19.252Z,91.84
2023-01-13T20:37:45.741Z,91.63
2023-01-13T20:40:15.676Z,92.16
2023-01-13T20:42:45.477Z,91.32
2023-01-13T20:45:18.046Z,92.03
2023-01-13T20:47:44.763Z,92.65
2023-01-13T20:50:12.273Z,92.52
2023-01-13T20:52:38.840Z,92.93
2023-01-13T20:55:07.224Z,92.48
2023-01-13T20:57:34.462Z,92.63
2023-01-13T21:00:02.179Z,92.61
2023-01-13T21:02:28.750Z,92.80
2023-01-13T21:04:55.180Z,93.00
2023-01-13T21:07:21.688Z,92.57
2023-01-13T21:09:48.352Z,92.72
2023-01-13T21:12:34.463Z,93.09
2023-01-13T21:15:19.940Z,92.85
2023-01-13T21:18:07.208Z,92.44
2023-01-13T21:20:35.301Z,92.24
2023-01-13T21:23:03.522Z,92.38
2023-01-13T21:25:31.071Z,92.61
2023-01-13T21:28:08.554Z,92.23
2023-01-13T21:30:36.527Z,92.01
2023-01-13T21:33:04.766Z,92.16
2023-01-13T21:35:31.304Z,91.58
2023-01-13T21:37:57.770Z,91.61
2023-01-13T21:40:24.242Z,91.28
2023-01-13T21:43:09.060Z,91.45
2023-01-13T21:45:57.603Z,91.86
2023-01-13T21:48:24.092Z,92.02
2023-01-13T21:50:51.068Z,92.13
2023-01-13T21:53:17.778Z,92.26
2023-01-13T21:55:44.254Z,91.90
2023-01-13T21:58:13.577Z,91.79
2023-01-13T22:00:42.305Z,92.30
2023-01-13T22:03:09.825Z,92.23
2023-01-13T22:05:37.015Z,91.24
2023-01-13T22:08:04.481Z,91.27
2023-01-13T22:10:31.694Z,90.89
2023-01-13T22:13:20.597Z,91.05
2023-01-13T22:15:47.376Z,91.16
2023-01-13T22:18:14.008Z,89.74
2023-01-13T22:20:41.988Z,89.49
2023-01-13T22:23:08.516Z,89.67
2023-01-13T22:25:34.987Z,89.82
2023-01-13T22:28:05.866Z,89.70
2023-01-13T22:30:33.093Z,89.05
2023-01-13T22:32:59.852Z,88.89
2023-01-13T22:35:26.413Z,88.64
2023-01-13T22:37:52.844Z,88.68
2023-01-13T22:40:19.376Z,87.67
2023-01-13T22:42:46.306Z,87.75
2023-01-13T22:45:14.211Z,88.26
2023-01-13T22:47:40.997Z,87.47
2023-01-13T22:50:08.542Z,88.04
2023-01-13T22:52:35.760Z,87.10
2023-01-13T22:55:02.298Z,87.98
2023-01-13T22:57:36.646Z,87.08
2023-01-13T23:00:10.555Z,87.83
2023-01-13T23:02:38.092Z,87.91
2023-01-13T23:05:04.872Z,88.41
2023-01-13T23:07:31.314Z,87.33
2023-01-13T23:09:57.766Z,87.61
2023-01-13T23:12:24.305Z,87.85
2023-01-13T23:14:50.725Z,87.42
2023-01-13T23:17:17.129Z,88.25
2023-01-13T23:19:43.676Z,87.62
2023-01-13T23:22:10.151Z,88.03
2023-01-13T23:24:36.556Z,87.30
2023-01-13T23:27:03.123Z,87.93
2023-01-13T23:29:29.606Z,87.76
2023-01-13T23:31:56.018Z,88.29
2023-01-13T23:34:22.660Z,87.71
2023-01-13T23:36:49.159Z,87.20
2023-01-13T23:39:15.593Z,86.80
2023-01-13T23:41:42.033Z,86.61
2023-01-13T23:44:09.193Z,86.15
2023-01-13T23:46:35.745Z,86.57
2023-01-13T23:49:03.472Z,86.13
2023-01-13T23:51:30.346Z,86.08
2023-01-13T23:53:57.952Z,86.29
2023-01-13T23:56:27.073Z,86.81
2023-01-13T23:58:54.064Z,86.72
